sensor_id;sensor_type;location;lat;lon;timestamp;P1;durP1;ratioP1;P2;durP2;ratioP2
4700;SDS011;8724;51.272;6.554;2022-11-15T00:02:37;8.77;;;7.37;;
4700;SDS011;8724;51.272;6.554;2022-11-15T00:05:23;6.60;;;6.00;;
4700;SDS011;8724;51.272;6.554;2022-11-15T00:08:10;8.43;;;6.27;;
4700;SDS011;8724;51.272;6.554;2022-11-15T00:10:58;6.40;;;5.80;;
4700;SDS011;8724;51.272;6.554;2022-11-15T00:13:46;6.43;;;5.83;;
4700;SDS011;8724;51.272;6.554;2022-11-15T00:16:34;6.33;;;5.73;;
4700;SDS011;8724;51.272;6.554;2022-11-15T00:19:20;6.30;;;5.60;;
4700;SDS011;8724;51.272;6.554;2022-11-15T00:22:07;9.73;;;6.00;;
4700;SDS011;8724;51.272;6.554;2022-11-15T00:24:54;6.23;;;5.43;;
4700;SDS011;8724;51.272;6.554;2022-11-15T00:27:41;6.70;;;5.40;;
4700;SDS011;8724;51.272;6.554;2022-11-15T00:30:28;5.43;;;4.90;;
4700;SDS011;8724;51.272;6.554;2022-11-15T00:33:16;6.73;;;6.07;;
4700;SDS011;8724;51.272;6.554;2022-11-15T00:36:06;7.50;;;5.20;;
4700;SDS011;8724;51.272;6.554;2022-11-15T00:38:55;5.90;;;5.30;;
4700;SDS011;8724;51.272;6.554;2022-11-15T00:41:42;7.20;;;5.93;;
4700;SDS011;8724;51.272;6.554;2022-11-15T00:44:29;5.23;;;4.83;;
4700;SDS011;8724;51.272;6.554;2022-11-15T00:47:16;6.03;;;5.43;;
4700;SDS011;8724;51.272;6.554;2022-11-15T00:50:04;5.80;;;5.20;;
4700;SDS011;8724;51.272;6.554;2022-11-15T00:52:56;5.10;;;4.60;;
4700;SDS011;8724;51.272;6.554;2022-11-15T00:55:43;6.40;;;4.90;;
4700;SDS011;8724;51.272;6.554;2022-11-15T00:58:30;4.70;;;4.30;;
4700;SDS011;8724;51.272;6.554;2022-11-15T01:01:17;5.43;;;4.93;;
4700;SDS011;8724;51.272;6.554;2022-11-15T01:04:04;5.37;;;4.93;;
4700;SDS011;8724;51.272;6.554;2022-11-15T01:06:52;5.90;;;5.00;;
4700;SDS011;8724;51.272;6.554;2022-11-15T01:09:39;5.70;;;5.20;;
4700;SDS011;8724;51.272;6.554;2022-11-15T01:12:26;8.17;;;5.03;;
4700;SDS011;8724;51.272;6.554;2022-11-15T01:15:12;6.07;;;5.47;;
4700;SDS011;8724;51.272;6.554;2022-11-15T01:17:59;6.73;;;5.50;;
4700;SDS011;8724;51.272;6.554;2022-11-15T01:20:48;5.63;;;5.13;;
4700;SDS011;8724;51.272;6.554;2022-11-15T01:23:37;5.40;;;4.83;;
4700;SDS011;8724;51.272;6.554;2022-11-15T01:26:25;5.10;;;4.60;;
4700;SDS011;8724;51.272;6.554;2022-11-15T01:29:12;7.27;;;5.53;;
4700;SDS011;8724;51.272;6.554;2022-11-15T01:31:59;5.87;;;4.77;;
4700;SDS011;8724;51.272;6.554;2022-11-15T01:34:46;5.53;;;4.93;;
4700;SDS011;8724;51.272;6.554;2022-11-15T01:37:33;5.47;;;5.07;;
4700;SDS011;8724;51.272;6.554;2022-11-15T01:40:21;6.33;;;5.63;;
4700;SDS011;8724;51.272;6.554;2022-11-15T01:43:20;6.40;;;5.07;;
4700;SDS011;8724;51.272;6.554;2022-11-15T01:46:13;5.20;;;4.73;;
4700;SDS011;8724;51.272;6.554;2022-11-15T01:49:11;5.60;;;5.07;;
4700;SDS011;8724;51.272;6.554;2022-11-15T01:52:01;5.83;;;5.30;;
4700;SDS011;8724;51.272;6.554;2022-11-15T01:54:52;5.80;;;5.20;;
4700;SDS011;8724;51.272;6.554;2022-11-15T01:57:44;5.80;;;5.30;;
4700;SDS011;8724;51.272;6.554;2022-11-15T02:00:34;6.80;;;5.40;;
4700;SDS011;8724;51.272;6.554;2022-11-15T02:03:21;5.40;;;4.90;;
4700;SDS011;8724;51.272;6.554;2022-11-15T02:06:11;12.83;;;6.40;;
4700;SDS011;8724;51.272;6.554;2022-11-15T02:08:58;5.70;;;5.20;;
4700;SDS011;8724;51.272;6.554;2022-11-15T02:11:46;5.20;;;4.80;;
4700;SDS011;8724;51.272;6.554;2022-11-15T02:14:35;6.67;;;5.30;;
4700;SDS011;8724;51.272;6.554;2022-11-15T02:17:31;5.40;;;4.80;;
4700;SDS011;8724;51.272;6.554;2022-11-15T02:30:47;4.97;;;4.53;;
4700;SDS011;8724;51.272;6.554;2022-11-15T02:33:38;5.37;;;4.87;;
4700;SDS011;8724;51.272;6.554;2022-11-15T02:36:32;6.80;;;4.70;;
4700;SDS011;8724;51.272;6.554;2022-11-15T02:39:24;6.47;;;4.90;;
4700;SDS011;8724;51.272;6.554;2022-11-15T02:42:19;5.80;;;4.80;;
4700;SDS011;8724;51.272;6.554;2022-11-15T02:45:27;4.70;;;4.30;;
4700;SDS011;8724;51.272;6.554;2022-11-15T02:48:18;5.73;;;5.13;;
4700;SDS011;8724;51.272;6.554;2022-11-15T02:51:07;6.03;;;5.40;;
4700;SDS011;8724;51.272;6.554;2022-11-15T02:53:55;5.73;;;5.23;;
4700;SDS011;8724;51.272;6.554;2022-11-15T02:56:42;4.90;;;4.50;;
4700;SDS011;8724;51.272;6.554;2022-11-15T03:02:57;4.67;;;4.27;;
4700;SDS011;8724;51.272;6.554;2022-11-15T03:06:06;6.40;;;4.80;;
4700;SDS011;8724;51.272;6.554;2022-11-15T03:09:04;5.80;;;4.70;;
4700;SDS011;8724;51.272;6.554;2022-11-15T03:11:56;4.93;;;4.47;;
4700;SDS011;8724;51.272;6.554;2022-11-15T03:14:50;5.23;;;4.73;;
4700;SDS011;8724;51.272;6.554;2022-11-15T03:17:42;5.67;;;4.53;;
4700;SDS011;8724;51.272;6.554;2022-11-15T03:20:37;4.60;;;4.23;;
4700;SDS011;8724;51.272;6.554;2022-11-15T03:23:26;6.80;;;4.60;;
4700;SDS011;8724;51.272;6.554;2022-11-15T03:26:16;5.93;;;4.70;;
4700;SDS011;8724;51.272;6.554;2022-11-15T03:29:06;6.20;;;4.60;;
4700;SDS011;8724;51.272;6.554;2022-11-15T03:31:58;5.83;;;5.20;;
4700;SDS011;8724;51.272;6.554;2022-11-15T03:34:50;5.10;;;4.60;;
4700;SDS011;8724;51.272;6.554;2022-11-15T03:37:44;5.47;;;4.97;;
4700;SDS011;8724;51.272;6.554;2022-11-15T03:40:38;5.63;;;4.07;;
4700;SDS011;8724;51.272;6.554;2022-11-15T03:43:28;5.27;;;4.83;;
4700;SDS011;8724;51.272;6.554;2022-11-15T03:46:23;5.20;;;4.70;;
4700;SDS011;8724;51.272;6.554;2022-11-15T03:49:14;5.70;;;5.10;;
4700;SDS011;8724;51.272;6.554;2022-11-15T03:52:06;6.17;;;4.50;;
4700;SDS011;8724;51.272;6.554;2022-11-15T03:54:53;5.30;;;4.43;;
4700;SDS011;8724;51.272;6.554;2022-11-15T03:57:42;5.33;;;4.43;;
4700;SDS011;8724;51.272;6.554;2022-11-15T04:00:31;4.73;;;4.30;;
4700;SDS011;8724;51.272;6.554;2022-11-15T04:03:18;4.77;;;4.37;;
4700;SDS011;8724;51.272;6.554;2022-11-15T04:06:05;4.50;;;4.20;;
4700;SDS011;8724;51.272;6.554;2022-11-15T04:08:52;5.37;;;4.87;;
4700;SDS011;8724;51.272;6.554;2022-11-15T04:11:39;6.43;;;4.83;;
4700;SDS011;8724;51.272;6.554;2022-11-15T04:14:27;4.80;;;4.37;;
4700;SDS011;8724;51.272;6.554;2022-11-15T04:17:13;4.70;;;4.30;;
4700;SDS011;8724;51.272;6.554;2022-11-15T04:20:00;6.47;;;4.60;;
4700;SDS011;8724;51.272;6.554;2022-11-15T04:23:06;5.20;;;4.70;;
4700;SDS011;8724;51.272;6.554;2022-11-15T04:26:14;4.23;;;3.80;;
4700;SDS011;8724;51.272;6.554;2022-11-15T04:29:02;4.63;;;4.23;;
4700;SDS011;8724;51.272;6.554;2022-11-15T04:32:13;4.40;;;4.00;;
4700;SDS011;8724;51.272;6.554;2022-11-15T04:35:00;5.70;;;4.00;;
4700;SDS011;8724;51.272;6.554;2022-11-15T04:37:47;3.97;;;3.67;;
4700;SDS011;8724;51.272;6.554;2022-11-15T04:40:33;5.20;;;4.07;;
4700;SDS011;8724;51.272;6.554;2022-11-15T04:43:20;5.67;;;4.00;;
4700;SDS011;8724;51.272;6.554;2022-11-15T04:46:07;4.60;;;4.20;;
4700;SDS011;8724;51.272;6.554;2022-11-15T04:48:55;4.33;;;3.93;;
4700;SDS011;8724;51.272;6.554;2022-11-15T04:51:43;5.00;;;3.80;;
4700;SDS011;8724;51.272;6.554;2022-11-15T04:54:31;5.27;;;3.50;;
4700;SDS011;8724;51.272;6.554;2022-11-15T04:57:17;4.13;;;3.80;;
4700;SDS011;8724;51.272;6.554;2022-11-15T05:00:05;4.97;;;4.57;;
4700;SDS011;8724;51.272;6.554;2022-11-15T05:02:54;4.83;;;3.93;;
4700;SDS011;8724;51.272;6.554;2022-11-15T05:05:59;3.97;;;3.67;;
4700;SDS011;8724;51.272;6.554;2022-11-15T05:08:46;4.83;;;4.30;;
4700;SDS011;8724;51.272;6.554;2022-11-15T05:11:33;4.50;;;4.20;;
4700;SDS011;8724;51.272;6.554;2022-11-15T05:14:20;4.90;;;4.23;;
4700;SDS011;8724;51.272;6.554;2022-11-15T05:17:07;4.10;;;3.80;;
4700;SDS011;8724;51.272;6.554;2022-11-15T05:19:54;70.13;;;51.33;;
4700;SDS011;8724;51.272;6.554;2022-11-15T05:22:43;86.47;;;65.40;;
4700;SDS011;8724;51.272;6.554;2022-11-15T05:25:29;94.90;;;75.53;;
4700;SDS011;8724;51.272;6.554;2022-11-15T05:28:16;91.63;;;65.87;;
4700;SDS011;8724;51.272;6.554;2022-11-15T05:31:04;58.33;;;46.60;;
4700;SDS011;8724;51.272;6.554;2022-11-15T05:33:55;45.13;;;34.70;;
4700;SDS011;8724;51.272;6.554;2022-11-15T05:36:42;27.93;;;22.97;;
4700;SDS011;8724;51.272;6.554;2022-11-15T05:39:32;22.73;;;16.50;;
4700;SDS011;8724;51.272;6.554;2022-11-15T05:42:18;16.97;;;13.03;;
4700;SDS011;8724;51.272;6.554;2022-11-15T05:45:06;12.47;;;10.30;;
4700;SDS011;8724;51.272;6.554;2022-11-15T05:47:55;10.33;;;8.10;;
4700;SDS011;8724;51.272;6.554;2022-11-15T05:50:45;6.87;;;6.17;;
4700;SDS011;8724;51.272;6.554;2022-11-15T05:53:33;6.50;;;5.70;;
4700;SDS011;8724;51.272;6.554;2022-11-15T05:56:23;5.53;;;5.03;;
4700;SDS011;8724;51.272;6.554;2022-11-15T05:59:11;4.83;;;4.33;;
4700;SDS011;8724;51.272;6.554;2022-11-15T06:01:58;6.50;;;4.97;;
4700;SDS011;8724;51.272;6.554;2022-11-15T06:04:45;4.20;;;3.80;;
4700;SDS011;8724;51.272;6.554;2022-11-15T06:07:32;4.77;;;4.37;;
4700;SDS011;8724;51.272;6.554;2022-11-15T06:10:19;4.50;;;4.10;;
4700;SDS011;8724;51.272;6.554;2022-11-15T06:13:08;46.10;;;35.27;;
4700;SDS011;8724;51.272;6.554;2022-11-15T06:15:55;55.30;;;42.10;;
4700;SDS011;8724;51.272;6.554;2022-11-15T06:18:42;43.47;;;32.47;;
4700;SDS011;8724;51.272;6.554;2022-11-15T06:21:29;31.37;;;23.43;;
4700;SDS011;8724;51.272;6.554;2022-11-15T06:24:16;21.93;;;18.33;;
4700;SDS011;8724;51.272;6.554;2022-11-15T06:27:04;14.07;;;12.60;;
4700;SDS011;8724;51.272;6.554;2022-11-15T06:29:52;9.83;;;8.83;;
4700;SDS011;8724;51.272;6.554;2022-11-15T06:32:39;8.60;;;7.53;;
4700;SDS011;8724;51.272;6.554;2022-11-15T06:35:27;7.43;;;6.23;;
4700;SDS011;8724;51.272;6.554;2022-11-15T06:38:15;6.80;;;5.30;;
4700;SDS011;8724;51.272;6.554;2022-11-15T06:41:02;6.57;;;5.30;;
4700;SDS011;8724;51.272;6.554;2022-11-15T06:43:50;5.67;;;5.17;;
4700;SDS011;8724;51.272;6.554;2022-11-15T06:46:38;6.50;;;4.63;;
4700;SDS011;8724;51.272;6.554;2022-11-15T06:49:27;4.53;;;4.03;;
4700;SDS011;8724;51.272;6.554;2022-11-15T06:52:14;5.30;;;4.30;;
4700;SDS011;8724;51.272;6.554;2022-11-15T06:55:03;5.70;;;4.00;;
4700;SDS011;8724;51.272;6.554;2022-11-15T06:57:51;4.90;;;4.10;;
4700;SDS011;8724;51.272;6.554;2022-11-15T07:00:38;3.00;;;2.80;;
4700;SDS011;8724;51.272;6.554;2022-11-15T07:03:27;2.70;;;2.50;;
4700;SDS011;8724;51.272;6.554;2022-11-15T07:06:14;2.47;;;2.27;;
4700;SDS011;8724;51.272;6.554;2022-11-15T07:09:02;2.27;;;2.10;;
4700;SDS011;8724;51.272;6.554;2022-11-15T07:11:49;53.00;;;38.50;;
4700;SDS011;8724;51.272;6.554;2022-11-15T07:14:39;36.90;;;28.33;;
4700;SDS011;8724;51.272;6.554;2022-11-15T07:17:25;17.60;;;14.47;;
4700;SDS011;8724;51.272;6.554;2022-11-15T07:20:14;10.10;;;8.03;;
4700;SDS011;8724;51.272;6.554;2022-11-15T07:23:02;5.33;;;4.37;;
4700;SDS011;8724;51.272;6.554;2022-11-15T07:25:49;3.57;;;2.57;;
4700;SDS011;8724;51.272;6.554;2022-11-15T07:28:36;3.10;;;1.60;;
4700;SDS011;8724;51.272;6.554;2022-11-15T07:31:23;2.00;;;1.60;;
4700;SDS011;8724;51.272;6.554;2022-11-15T07:34:10;2.30;;;1.20;;
4700;SDS011;8724;51.272;6.554;2022-11-15T07:36:58;1.00;;;0.87;;
4700;SDS011;8724;51.272;6.554;2022-11-15T07:39:45;1.10;;;1.00;;
4700;SDS011;8724;51.272;6.554;2022-11-15T07:42:32;53.57;;;40.30;;
4700;SDS011;8724;51.272;6.554;2022-11-15T07:45:39;63.80;;;46.00;;
4700;SDS011;8724;51.272;6.554;2022-11-15T07:48:27;30.00;;;23.90;;
4700;SDS011;8724;51.272;6.554;2022-11-15T07:51:27;16.37;;;12.77;;
4700;SDS011;8724;51.272;6.554;2022-11-15T07:54:16;11.33;;;8.00;;
4700;SDS011;8724;51.272;6.554;2022-11-15T07:57:03;5.50;;;5.00;;
4700;SDS011;8724;51.272;6.554;2022-11-15T07:59:52;3.93;;;3.57;;
4700;SDS011;8724;51.272;6.554;2022-11-15T08:02:41;3.07;;;2.40;;
4700;SDS011;8724;51.272;6.554;2022-11-15T08:05:29;2.23;;;1.93;;
4700;SDS011;8724;51.272;6.554;2022-11-15T08:08:16;2.70;;;1.33;;
4700;SDS011;8724;51.272;6.554;2022-11-15T08:11:04;1.97;;;1.00;;
4700;SDS011;8724;51.272;6.554;2022-11-15T08:13:51;1.17;;;1.17;;
4700;SDS011;8724;51.272;6.554;2022-11-15T08:16:38;1.60;;;1.50;;
4700;SDS011;8724;51.272;6.554;2022-11-15T08:19:25;5.70;;;1.03;;
4700;SDS011;8724;51.272;6.554;2022-11-15T08:22:11;1.10;;;1.10;;
4700;SDS011;8724;51.272;6.554;2022-11-15T08:24:58;2.10;;;1.30;;
4700;SDS011;8724;51.272;6.554;2022-11-15T08:27:46;0.90;;;0.90;;
4700;SDS011;8724;51.272;6.554;2022-11-15T08:30:34;1.90;;;1.10;;
4700;SDS011;8724;51.272;6.554;2022-11-15T08:33:23;1.40;;;1.30;;
4700;SDS011;8724;51.272;6.554;2022-11-15T08:36:12;1.30;;;1.20;;
4700;SDS011;8724;51.272;6.554;2022-11-15T08:39:00;1.40;;;1.30;;
4700;SDS011;8724;51.272;6.554;2022-11-15T08:41:47;1.73;;;1.37;;
4700;SDS011;8724;51.272;6.554;2022-11-15T08:44:35;1.90;;;1.70;;
4700;SDS011;8724;51.272;6.554;2022-11-15T08:47:22;1.17;;;1.10;;
4700;SDS011;8724;51.272;6.554;2022-11-15T08:50:09;1.20;;;1.10;;
4700;SDS011;8724;51.272;6.554;2022-11-15T08:52:56;1.73;;;1.10;;
4700;SDS011;8724;51.272;6.554;2022-11-15T08:55:49;4.33;;;1.40;;
4700;SDS011;8724;51.272;6.554;2022-11-15T08:58:57;38.30;;;25.77;;
4700;SDS011;8724;51.272;6.554;2022-11-15T09:01:46;36.27;;;26.00;;
4700;SDS011;8724;51.272;6.554;2022-11-15T09:04:33;23.67;;;19.20;;
4700;SDS011;8724;51.272;6.554;2022-11-15T09:07:19;14.63;;;12.00;;
4700;SDS011;8724;51.272;6.554;2022-11-15T09:10:06;9.37;;;7.93;;
4700;SDS011;8724;51.272;6.554;2022-11-15T09:12:56;7.60;;;6.23;;
4700;SDS011;8724;51.272;6.554;2022-11-15T09:15:43;6.70;;;5.43;;
4700;SDS011;8724;51.272;6.554;2022-11-15T09:18:31;5.77;;;4.73;;
4700;SDS011;8724;51.272;6.554;2022-11-15T09:21:19;4.63;;;3.60;;
4700;SDS011;8724;51.272;6.554;2022-11-15T09:24:06;3.43;;;3.00;;
4700;SDS011;8724;51.272;6.554;2022-11-15T09:26:53;2.57;;;2.37;;
4700;SDS011;8724;51.272;6.554;2022-11-15T09:32:52;1.83;;;1.73;;
4700;SDS011;8724;51.272;6.554;2022-11-15T09:35:41;3.73;;;2.07;;
4700;SDS011;8724;51.272;6.554;2022-11-15T09:38:27;3.13;;;1.90;;
4700;SDS011;8724;51.272;6.554;2022-11-15T09:44:48;1.30;;;1.20;;
4700;SDS011;8724;51.272;6.554;2022-11-15T09:48:00;1.83;;;1.10;;
4700;SDS011;8724;51.272;6.554;2022-11-15T09:51:18;2.00;;;1.63;;
4700;SDS011;8724;51.272;6.554;2022-11-15T09:53:54;2.17;;;1.57;;
4700;SDS011;8724;51.272;6.554;2022-11-15T09:56:47;1.90;;;1.57;;
4700;SDS011;8724;51.272;6.554;2022-11-15T10:02:18;1.90;;;1.73;;
4700;SDS011;8724;51.272;6.554;2022-11-15T10:05:00;1.83;;;1.10;;
4700;SDS011;8724;51.272;6.554;2022-11-15T10:07:34;1.97;;;1.57;;
4700;SDS011;8724;51.272;6.554;2022-11-15T10:10:10;1.30;;;1.20;;
4700;SDS011;8724;51.272;6.554;2022-11-15T10:12:45;2.87;;;1.37;;
4700;SDS011;8724;51.272;6.554;2022-11-15T10:15:18;1.87;;;1.20;;
4700;SDS011;8724;51.272;6.554;2022-11-15T10:17:55;1.57;;;1.20;;
4700;SDS011;8724;51.272;6.554;2022-11-15T10:20:34;2.03;;;1.10;;
4700;SDS011;8724;51.272;6.554;2022-11-15T10:23:14;1.47;;;1.37;;
4700;SDS011;8724;51.272;6.554;2022-11-15T10:25:45;1.33;;;1.23;;
4700;SDS011;8724;51.272;6.554;2022-11-15T10:28:14;1.23;;;1.23;;
4700;SDS011;8724;51.272;6.554;2022-11-15T10:30:44;1.70;;;1.37;;
4700;SDS011;8724;51.272;6.554;2022-11-15T10:33:19;2.40;;;1.43;;
4700;SDS011;8724;51.272;6.554;2022-11-15T10:36:14;19.70;;;15.97;;
4700;SDS011;8724;51.272;6.554;2022-11-15T10:38:55;26.73;;;19.03;;
4700;SDS011;8724;51.272;6.554;2022-11-15T10:44:10;12.50;;;9.37;;
4700;SDS011;8724;51.272;6.554;2022-11-15T10:46:47;8.93;;;6.90;;
4700;SDS011;8724;51.272;6.554;2022-11-15T10:49:31;6.67;;;4.77;;
4700;SDS011;8724;51.272;6.554;2022-11-15T10:52:02;4.17;;;3.30;;
4700;SDS011;8724;51.272;6.554;2022-11-15T10:54:41;2.30;;;2.10;;
4700;SDS011;8724;51.272;6.554;2022-11-15T10:57:13;3.17;;;2.13;;
4700;SDS011;8724;51.272;6.554;2022-11-15T10:59:44;2.60;;;1.90;;
4700;SDS011;8724;51.272;6.554;2022-11-15T11:02:27;2.37;;;1.80;;
4700;SDS011;8724;51.272;6.554;2022-11-15T11:04:58;1.97;;;1.87;;
4700;SDS011;8724;51.272;6.554;2022-11-15T11:07:27;2.03;;;1.50;;
4700;SDS011;8724;51.272;6.554;2022-11-15T11:09:59;2.20;;;1.47;;
4700;SDS011;8724;51.272;6.554;2022-11-15T11:12:48;2.43;;;1.47;;
4700;SDS011;8724;51.272;6.554;2022-11-15T11:15:16;1.77;;;1.40;;
4700;SDS011;8724;51.272;6.554;2022-11-15T11:17:57;2.03;;;1.03;;
4700;SDS011;8724;51.272;6.554;2022-11-15T11:20:33;1.30;;;1.20;;
4700;SDS011;8724;51.272;6.554;2022-11-15T11:23:14;1.33;;;0.90;;
4700;SDS011;8724;51.272;6.554;2022-11-15T11:25:54;2.27;;;2.07;;
4700;SDS011;8724;51.272;6.554;2022-11-15T11:28:34;45.23;;;33.17;;
4700;SDS011;8724;51.272;6.554;2022-11-15T11:31:13;34.30;;;25.33;;
4700;SDS011;8724;51.272;6.554;2022-11-15T11:33:55;22.90;;;18.47;;
4700;SDS011;8724;51.272;6.554;2022-11-15T11:36:32;17.00;;;13.40;;
4700;SDS011;8724;51.272;6.554;2022-11-15T11:39:14;10.30;;;8.50;;
4700;SDS011;8724;51.272;6.554;2022-11-15T11:45:04;8.40;;;3.87;;
4700;SDS011;8724;51.272;6.554;2022-11-15T11:51:04;2.10;;;1.90;;
4700;SDS011;8724;51.272;6.554;2022-11-15T11:53:39;2.00;;;1.90;;
4700;SDS011;8724;51.272;6.554;2022-11-15T11:56:15;1.90;;;1.80;;
4700;SDS011;8724;51.272;6.554;2022-11-15T11:58:52;1.50;;;1.40;;
4700;SDS011;8724;51.272;6.554;2022-11-15T12:01:26;1.50;;;1.40;;
4700;SDS011;8724;51.272;6.554;2022-11-15T12:03:59;1.70;;;1.50;;
4700;SDS011;8724;51.272;6.554;2022-11-15T12:06:35;3.10;;;1.07;;
4700;SDS011;8724;51.272;6.554;2022-11-15T12:09:12;1.37;;;1.07;;
4700;SDS011;8724;51.272;6.554;2022-11-15T12:11:47;1.20;;;1.10;;
4700;SDS011;8724;51.272;6.554;2022-11-15T12:14:24;1.00;;;1.00;;
4700;SDS011;8724;51.272;6.554;2022-11-15T12:16:58;1.53;;;1.00;;
4700;SDS011;8724;51.272;6.554;2022-11-15T12:19:28;7.00;;;5.50;;
4700;SDS011;8724;51.272;6.554;2022-11-15T12:21:59;15.43;;;12.27;;
4700;SDS011;8724;51.272;6.554;2022-11-15T12:24:32;11.47;;;9.70;;
4700;SDS011;8724;51.272;6.554;2022-11-15T12:27:05;10.67;;;9.10;;
4700;SDS011;8724;51.272;6.554;2022-11-15T12:29:38;10.53;;;7.40;;
4700;SDS011;8724;51.272;6.554;2022-11-15T12:32:20;7.87;;;6.60;;
4700;SDS011;8724;51.272;6.554;2022-11-15T12:34:54;6.70;;;5.57;;
4700;SDS011;8724;51.272;6.554;2022-11-15T12:40:21;4.80;;;3.93;;
4700;SDS011;8724;51.272;6.554;2022-11-15T12:42:58;4.67;;;3.67;;
4700;SDS011;8724;51.272;6.554;2022-11-15T12:45:31;3.10;;;2.63;;
4700;SDS011;8724;51.272;6.554;2022-11-15T12:57:41;2.43;;;1.07;;
4700;SDS011;8724;51.272;6.554;2022-11-15T13:03:18;1.47;;;1.20;;
4700;SDS011;8724;51.272;6.554;2022-11-15T13:05:53;2.30;;;1.40;;
4700;SDS011;8724;51.272;6.554;2022-11-15T13:08:38;1.40;;;1.20;;
4700;SDS011;8724;51.272;6.554;2022-11-15T13:14:37;0.93;;;0.87;;
4700;SDS011;8724;51.272;6.554;2022-11-15T13:20:14;0.83;;;0.77;;
4700;SDS011;8724;51.272;6.554;2022-11-15T13:22:49;1.43;;;1.10;;
4700;SDS011;8724;51.272;6.554;2022-11-15T13:25:19;1.17;;;0.90;;
4700;SDS011;8724;51.272;6.554;2022-11-15T13:28:17;1.33;;;1.23;;
4700;SDS011;8724;51.272;6.554;2022-11-15T13:30:49;1.37;;;0.70;;
4700;SDS011;8724;51.272;6.554;2022-11-15T13:33:20;1.90;;;0.87;;
4700;SDS011;8724;51.272;6.554;2022-11-15T13:35:50;1.43;;;0.87;;
4700;SDS011;8724;51.272;6.554;2022-11-15T13:38:25;1.37;;;1.00;;
4700;SDS011;8724;51.272;6.554;2022-11-15T13:40:56;2.87;;;0.93;;
4700;SDS011;8724;51.272;6.554;2022-11-15T13:43:28;3.80;;;1.10;;
4700;SDS011;8724;51.272;6.554;2022-11-15T13:46:06;1.13;;;0.90;;
4700;SDS011;8724;51.272;6.554;2022-11-15T13:48:41;0.80;;;0.80;;
4700;SDS011;8724;51.272;6.554;2022-11-15T13:51:14;0.73;;;0.73;;
4700;SDS011;8724;51.272;6.554;2022-11-15T13:53:47;1.17;;;1.10;;
4700;SDS011;8724;51.272;6.554;2022-11-15T13:56:21;1.57;;;1.20;;
4700;SDS011;8724;51.272;6.554;2022-11-15T13:58:51;1.43;;;1.10;;
4700;SDS011;8724;51.272;6.554;2022-11-15T14:01:21;1.47;;;0.80;;
4700;SDS011;8724;51.272;6.554;2022-11-15T14:03:51;1.63;;;1.10;;
4700;SDS011;8724;51.272;6.554;2022-11-15T14:06:22;2.73;;;1.10;;
4700;SDS011;8724;51.272;6.554;2022-11-15T14:12:02;1.07;;;0.90;;
4700;SDS011;8724;51.272;6.554;2022-11-15T14:14:50;1.70;;;1.07;;
4700;SDS011;8724;51.272;6.554;2022-11-15T14:17:20;1.10;;;1.00;;
4700;SDS011;8724;51.272;6.554;2022-11-15T14:20:02;1.10;;;1.00;;
4700;SDS011;8724;51.272;6.554;2022-11-15T14:22:50;4.10;;;1.60;;
4700;SDS011;8724;51.272;6.554;2022-11-15T14:25:23;1.53;;;1.23;;
4700;SDS011;8724;51.272;6.554;2022-11-15T14:28:11;1.20;;;1.10;;
4700;SDS011;8724;51.272;6.554;2022-11-15T14:30:59;1.37;;;1.27;;
4700;SDS011;8724;51.272;6.554;2022-11-15T14:33:28;1.53;;;1.10;;
4700;SDS011;8724;51.272;6.554;2022-11-15T14:36:02;1.40;;;1.00;;
4700;SDS011;8724;51.272;6.554;2022-11-15T14:38:32;1.10;;;1.00;;
4700;SDS011;8724;51.272;6.554;2022-11-15T14:41:01;1.30;;;1.10;;
4700;SDS011;8724;51.272;6.554;2022-11-15T14:43:30;1.20;;;1.10;;
4700;SDS011;8724;51.272;6.554;2022-11-15T14:46:00;1.40;;;1.30;;
4700;SDS011;8724;51.272;6.554;2022-11-15T14:48:28;1.63;;;1.27;;
4700;SDS011;8724;51.272;6.554;2022-11-15T14:50:57;1.43;;;1.30;;
4700;SDS011;8724;51.272;6.554;2022-11-15T14:53:25;1.37;;;1.27;;
4700;SDS011;8724;51.272;6.554;2022-11-15T14:55:53;1.60;;;1.50;;
4700;SDS011;8724;51.272;6.554;2022-11-15T14:58:22;1.80;;;1.70;;
4700;SDS011;8724;51.272;6.554;2022-11-15T15:00:50;1.70;;;1.50;;
4700;SDS011;8724;51.272;6.554;2022-11-15T15:03:19;20.93;;;16.30;;
4700;SDS011;8724;51.272;6.554;2022-11-15T15:05:48;34.23;;;25.67;;
4700;SDS011;8724;51.272;6.554;2022-11-15T15:08:16;21.50;;;16.70;;
4700;SDS011;8724;51.272;6.554;2022-11-15T15:10:45;12.80;;;9.57;;
4700;SDS011;8724;51.272;6.554;2022-11-15T15:13:15;8.90;;;7.10;;
4700;SDS011;8724;51.272;6.554;2022-11-15T15:15:45;6.53;;;5.00;;
4700;SDS011;8724;51.272;6.554;2022-11-15T15:18:14;5.33;;;4.80;;
4700;SDS011;8724;51.272;6.554;2022-11-15T15:20:45;3.70;;;3.40;;
4700;SDS011;8724;51.272;6.554;2022-11-15T15:23:19;3.83;;;3.10;;
4700;SDS011;8724;51.272;6.554;2022-11-15T15:25:51;2.53;;;2.33;;
4700;SDS011;8724;51.272;6.554;2022-11-15T15:28:19;3.83;;;2.60;;
4700;SDS011;8724;51.272;6.554;2022-11-15T15:30:47;3.77;;;2.27;;
4700;SDS011;8724;51.272;6.554;2022-11-15T15:33:16;2.67;;;2.10;;
4700;SDS011;8724;51.272;6.554;2022-11-15T15:35:46;3.30;;;2.43;;
4700;SDS011;8724;51.272;6.554;2022-11-15T15:38:14;2.07;;;1.87;;
4700;SDS011;8724;51.272;6.554;2022-11-15T15:40:43;2.00;;;1.80;;
4700;SDS011;8724;51.272;6.554;2022-11-15T15:43:11;2.07;;;1.87;;
4700;SDS011;8724;51.272;6.554;2022-11-15T15:45:40;4.20;;;1.67;;
4700;SDS011;8724;51.272;6.554;2022-11-15T15:48:10;2.27;;;2.07;;
4700;SDS011;8724;51.272;6.554;2022-11-15T15:50:40;3.43;;;2.00;;
4700;SDS011;8724;51.272;6.554;2022-11-15T15:53:11;1.70;;;1.60;;
4700;SDS011;8724;51.272;6.554;2022-11-15T15:55:40;1.83;;;1.50;;
4700;SDS011;8724;51.272;6.554;2022-11-15T15:58:08;1.67;;;1.57;;
4700;SDS011;8724;51.272;6.554;2022-11-15T16:00:39;2.33;;;2.13;;
4700;SDS011;8724;51.272;6.554;2022-11-15T16:03:07;3.33;;;1.63;;
4700;SDS011;8724;51.272;6.554;2022-11-15T16:05:35;1.60;;;1.50;;
4700;SDS011;8724;51.272;6.554;2022-11-15T16:08:04;1.77;;;1.67;;
4700;SDS011;8724;51.272;6.554;2022-11-15T16:10:34;2.07;;;1.70;;
4700;SDS011;8724;51.272;6.554;2022-11-15T16:13:03;1.70;;;1.60;;
4700;SDS011;8724;51.272;6.554;2022-11-15T16:15:31;3.60;;;2.50;;
4700;SDS011;8724;51.272;6.554;2022-11-15T16:18:00;13.80;;;10.90;;
4700;SDS011;8724;51.272;6.554;2022-11-15T16:20:31;14.50;;;11.27;;
4700;SDS011;8724;51.272;6.554;2022-11-15T16:23:02;7.43;;;6.23;;
4700;SDS011;8724;51.272;6.554;2022-11-15T16:25:38;5.80;;;4.90;;
4700;SDS011;8724;51.272;6.554;2022-11-15T16:28:13;4.30;;;3.97;;
4700;SDS011;8724;51.272;6.554;2022-11-15T16:30:47;3.10;;;2.60;;
4700;SDS011;8724;51.272;6.554;2022-11-15T16:33:22;2.33;;;2.13;;
4700;SDS011;8724;51.272;6.554;2022-11-15T16:35:51;2.27;;;2.07;;
4700;SDS011;8724;51.272;6.554;2022-11-15T16:38:19;2.00;;;1.83;;
4700;SDS011;8724;51.272;6.554;2022-11-15T16:40:49;5.23;;;1.70;;
4700;SDS011;8724;51.272;6.554;2022-11-15T16:43:17;1.63;;;1.53;;
4700;SDS011;8724;51.272;6.554;2022-11-15T16:45:48;2.37;;;2.10;;
4700;SDS011;8724;51.272;6.554;2022-11-15T16:48:21;8.73;;;5.20;;
4700;SDS011;8724;51.272;6.554;2022-11-15T16:50:51;7.40;;;5.97;;
4700;SDS011;8724;51.272;6.554;2022-11-15T16:53:22;6.93;;;5.73;;
4700;SDS011;8724;51.272;6.554;2022-11-15T16:55:52;10.40;;;4.90;;
4700;SDS011;8724;51.272;6.554;2022-11-15T16:58:21;4.23;;;3.30;;
4700;SDS011;8724;51.272;6.554;2022-11-15T17:00:50;3.80;;;3.37;;
4700;SDS011;8724;51.272;6.554;2022-11-15T17:03:20;2.70;;;2.50;;
4700;SDS011;8724;51.272;6.554;2022-11-15T17:05:49;4.60;;;3.00;;
4700;SDS011;8724;51.272;6.554;2022-11-15T17:08:18;2.90;;;2.30;;
4700;SDS011;8724;51.272;6.554;2022-11-15T17:10:48;2.27;;;2.07;;
4700;SDS011;8724;51.272;6.554;2022-11-15T17:13:17;1.47;;;1.37;;
4700;SDS011;8724;51.272;6.554;2022-11-15T17:15:45;1.90;;;1.50;;
4700;SDS011;8724;51.272;6.554;2022-11-15T17:18:14;1.80;;;1.50;;
4700;SDS011;8724;51.272;6.554;2022-11-15T17:20:42;1.77;;;1.60;;
4700;SDS011;8724;51.272;6.554;2022-11-15T17:23:13;3.63;;;3.33;;
4700;SDS011;8724;51.272;6.554;2022-11-15T17:25:44;3.40;;;3.10;;
4700;SDS011;8724;51.272;6.554;2022-11-15T17:28:13;3.10;;;2.90;;
4700;SDS011;8724;51.272;6.554;2022-11-15T17:30:42;3.40;;;3.10;;
4700;SDS011;8724;51.272;6.554;2022-11-15T17:33:10;3.20;;;2.90;;
4700;SDS011;8724;51.272;6.554;2022-11-15T17:35:38;5.20;;;4.63;;
4700;SDS011;8724;51.272;6.554;2022-11-15T17:38:07;5.63;;;4.27;;
4700;SDS011;8724;51.272;6.554;2022-11-15T17:40:35;5.47;;;4.60;;
4700;SDS011;8724;51.272;6.554;2022-11-15T17:43:04;4.80;;;4.30;;